answcdn.com alexa rank chart, answcdn.com alexa rank daily changes

answcdn.com alexa rank chart, answcdn.com alexa rank daily changes

answcdn.com
Actual rank:
713 077

RANK HISTORY

Date Rank Diff
2017/05/30 713 077 -6 331
2017/05/29 719 408 +6 089
2017/05/28 713 319 -3 750
2017/05/27 717 069 +1 300
2017/05/26 715 769 +6 463
2017/05/25 709 306 -14 616
2017/05/24 723 922 -12 214
2017/05/23 736 136 +15 396
2017/05/22 720 740 -21 387
2017/05/21 742 127 -4 564
2017/05/20 746 691 -52 777
2017/05/19 799 468 +31 493
2017/05/18 767 975 +7 747
2017/05/17 760 228 +73 559
2017/05/16 686 669 -9 554
2017/05/15 696 223 +762
2017/05/14 695 461 +1 514
2017/05/13 693 947 +14 105
2017/05/12 679 842 -13 549
2017/05/11 693 391 -1 829
2017/05/10 695 220 +15 833
2017/05/09 679 387 +3 888
2017/05/08 675 499 +52 380
2017/05/07 623 119 +5 460
2017/05/06 617 659 +9 098
2017/05/05 608 561 +13 844
2017/05/04 594 717 +21 390
2017/05/03 573 327 -14 239
2017/05/02 587 566 +2 082
2017/05/01 585 484 -4 087
2017/04/30 589 571 +8 038
2017/04/29 581 533 -5 881
2017/04/28 587 414 +2 283
2017/04/27 585 131 +28 076
2017/04/26 557 055 -3 740
2017/04/25 560 795 +6 824
2017/04/24 553 971 +27 974
2017/04/23 525 997 -5 987
2017/04/22 531 984 -20 103
2017/04/21 552 087 +5 993
2017/04/20 546 094 +862
2017/04/19 545 232 -10 137
2017/04/18 555 369 -17 681
2017/04/17 573 050 -78 505
2017/04/16 651 555 +29 489
2017/04/15 622 066 +11 449
2017/04/14 610 617 +10 159
2017/04/13 600 458 -4 733
2017/04/12 605 191 +38 458
2017/04/11 566 733 +16 216
2017/04/10 550 517 -9 379
2017/04/09 559 896 -9 880
2017/04/08 569 776 -35 377
2017/04/07 605 153 +366
2017/04/06 604 787 -5 730
2017/04/05 610 517 -1 974
2017/04/04 612 491 -19 272
2017/04/03 631 763 +21 528
2017/04/02 610 235 +13 212
2017/04/01 597 023 +1 569
2017/03/31 595 454

WIDGET FOR YOUR SITE

DOMAINS WITH THE NEAREST RANK

Domain Rank
mycompany.co.in 713 072
rehabili-shigoto.com 713 073
moc.ps 713 074
feelyourlove.com 713 075
sml-family.org 713 076
answcdn.com 713 077
yama-kizaichu.com 713 078
recursosdesperanza.blogspot.com 713 079
1brd.com 713 080
seductionbase.com 713 081
quizionaire.com 713 082

DOMAINS WITH THE NEAREST RANK BY TLD .com

Domain Rank
happywheels8.com 713 068
wcpcgames.com 713 069
elknetwork.com 713 071
rehabili-shigoto.com 713 073
feelyourlove.com 713 075
answcdn.com 713 077
yama-kizaichu.com 713 078
1brd.com 713 080
seductionbase.com 713 081
quizionaire.com 713 082
kineticcuonline.com 713 083